createdAt,value
2018-05-29T00:00:22.486Z,91.90
2018-05-29T00:02:27.108Z,91.50
2018-05-29T00:04:30.521Z,91.50
2018-05-29T00:06:33.989Z,91.50
2018-05-29T00:08:38.176Z,91.60
2018-05-29T00:10:41.640Z,91.50
2018-05-29T00:12:45.029Z,91.30
2018-05-29T00:14:48.481Z,91.40
2018-05-29T00:16:51.920Z,91.20
2018-05-29T00:18:55.388Z,91.10
2018-05-29T00:20:59.600Z,91.10
2018-05-29T00:23:03.104Z,91.10
2018-05-29T00:25:06.520Z,91.30
2018-05-29T00:27:09.961Z,91.30
2018-05-29T00:29:13.386Z,91.40
2018-05-29T00:31:17.585Z,91.30
2018-05-29T00:33:21.089Z,91.30
2018-05-29T00:35:24.588Z,91.30
2018-05-29T00:37:27.982Z,91.50
2018-05-29T00:39:32.647Z,91.50
2018-05-29T00:41:36.838Z,91.30
2018-05-29T00:43:40.279Z,91.40
2018-05-29T00:45:43.781Z,91.50
2018-05-29T00:47:47.224Z,91.40
2018-05-29T00:49:50.639Z,91.60
2018-05-29T00:51:54.093Z,92.00
2018-05-29T00:53:57.541Z,92.50
2018-05-29T00:56:01.752Z,93.30
2018-05-29T00:58:05.182Z,93.30
2018-05-29T01:00:08.591Z,93.80
2018-05-29T01:02:12.152Z,94.10
2018-05-29T01:04:15.548Z,94.00
2018-05-29T01:06:19.005Z,94.00
2018-05-29T01:08:23.418Z,94.00
2018-05-29T01:10:26.815Z,93.80
2018-05-29T01:12:30.352Z,93.70
2018-05-29T01:14:33.751Z,93.30
2018-05-29T01:16:38.147Z,93.40
2018-05-29T01:18:42.303Z,93.30
2018-05-29T01:20:45.741Z,93.30
2018-05-29T01:22:49.260Z,93.20
2018-05-29T01:24:52.609Z,93.20
2018-05-29T01:26:56.885Z,93.40
2018-05-29T01:29:00.318Z,93.30
2018-05-29T01:31:03.762Z,93.20
2018-05-29T01:33:07.204Z,93.00
2018-05-29T01:35:10.703Z,93.30
2018-05-29T01:37:14.163Z,93.40
2018-05-29T01:39:17.609Z,93.40
2018-05-29T01:41:21.809Z,93.70
2018-05-29T01:43:25.176Z,93.80
2018-05-29T01:45:28.572Z,93.60
2018-05-29T01:47:32.034Z,93.80
2018-05-29T01:49:35.476Z,93.80
2018-05-29T01:51:38.893Z,93.70
2018-05-29T01:53:42.318Z,93.70
2018-05-29T01:55:45.732Z,93.70
2018-05-29T01:57:49.977Z,93.70
2018-05-29T01:59:53.387Z,93.70
2018-05-29T02:01:57.001Z,93.70
2018-05-29T02:04:00.409Z,93.70
2018-05-29T02:06:04.828Z,94.00
2018-05-29T02:08:08.342Z,93.80
2018-05-29T02:10:11.776Z,93.80
2018-05-29T02:12:15.241Z,93.80
2018-05-29T02:14:18.670Z,93.70
2018-05-29T02:16:22.881Z,94.00
2018-05-29T02:18:26.402Z,94.00
2018-05-29T02:20:29.851Z,94.00
2018-05-29T02:22:34.379Z,94.00
2018-05-29T02:24:37.772Z,94.00
2018-05-29T02:26:41.294Z,94.00
2018-05-29T02:28:45.553Z,93.90
2018-05-29T02:30:48.964Z,94.00
2018-05-29T02:32:53.195Z,94.10
2018-05-29T02:34:57.043Z,94.20
2018-05-29T02:37:00.529Z,94.00
2018-05-29T02:39:03.997Z,93.70
2018-05-29T02:41:08.456Z,93.80
2018-05-29T02:43:11.925Z,94.10
2018-05-29T02:45:16.123Z,94.30
2018-05-29T02:47:19.588Z,94.30
2018-05-29T02:49:24.391Z,94.40
2018-05-29T02:51:30.252Z,94.30
2018-05-29T02:53:33.725Z,94.30
2018-05-29T02:55:37.180Z,94.30
2018-05-29T02:57:40.669Z,94.20
2018-05-29T02:59:46.279Z,94.10
2018-05-29T03:01:51.128Z,94.00
2018-05-29T03:03:55.531Z,94.00
2018-05-29T03:05:58.959Z,93.80
2018-05-29T03:08:03.171Z,94.80
2018-05-29T03:10:06.569Z,94.80
2018-05-29T03:12:10.070Z,95.00
2018-05-29T03:14:13.467Z,95.00
2018-05-29T03:16:16.861Z,95.10
2018-05-29T03:18:20.710Z,95.10
2018-05-29T03:20:24.140Z,94.80
2018-05-29T03:22:28.326Z,94.90
2018-05-29T03:24:31.727Z,94.90
2018-05-29T03:26:35.224Z,94.60
2018-05-29T03:28:38.662Z,94.50
2018-05-29T03:30:42.049Z,94.80
2018-05-29T03:32:45.455Z,94.60
2018-05-29T03:34:48.852Z,94.90
2018-05-29T03:36:52.237Z,95.20
2018-05-29T03:38:55.680Z,95.00
2018-05-29T03:40:59.058Z,95.10
2018-05-29T03:43:02.477Z,95.20
2018-05-29T03:45:05.858Z,95.40
2018-05-29T03:47:09.277Z,95.30
2018-05-29T03:49:12.700Z,95.40
2018-05-29T03:51:16.293Z,95.30
2018-05-29T03:53:19.706Z,95.30
2018-05-29T03:55:23.160Z,95.30
2018-05-29T03:57:26.576Z,95.30
2018-05-29T03:59:29.951Z,95.30
2018-05-29T04:01:34.090Z,95.10
2018-05-29T04:03:37.603Z,95.00
2018-05-29T04:05:41.009Z,95.30
2018-05-29T04:07:45.413Z,95.30
2018-05-29T04:09:49.004Z,95.20
2018-05-29T04:11:52.457Z,95.00
2018-05-29T04:13:55.898Z,95.00
2018-05-29T04:16:00.290Z,94.90
2018-05-29T04:18:03.773Z,94.90
2018-05-29T04:20:07.221Z,95.10
2018-05-29T04:22:11.399Z,95.00
2018-05-29T04:24:14.808Z,94.90
2018-05-29T04:26:18.229Z,95.00
2018-05-29T04:28:21.646Z,94.90
2018-05-29T04:30:25.133Z,95.10
2018-05-29T04:32:28.646Z,95.10
2018-05-29T04:34:32.060Z,94.90
2018-05-29T04:36:35.556Z,94.80
2018-05-29T04:38:39.136Z,94.80
2018-05-29T04:40:42.545Z,94.90
2018-05-29T04:42:45.973Z,94.50
2018-05-29T04:44:49.391Z,94.60
2018-05-29T04:46:52.804Z,94.60
2018-05-29T04:48:56.232Z,94.80
2018-05-29T04:51:00.406Z,94.90
2018-05-29T04:53:03.867Z,94.80
2018-05-29T04:55:08.088Z,94.70
2018-05-29T04:57:12.232Z,94.80
2018-05-29T04:59:15.834Z,94.70
2018-05-29T05:01:19.731Z,94.50
2018-05-29T05:03:23.219Z,94.60
2018-05-29T05:05:27.795Z,94.80
2018-05-29T05:07:31.362Z,94.80
2018-05-29T05:09:35.821Z,94.90
2018-05-29T05:11:39.266Z,94.80
2018-05-29T05:13:43.627Z,94.80
2018-05-29T05:15:47.678Z,94.80
2018-05-29T05:17:51.252Z,94.80
2018-05-29T05:19:54.757Z,94.80
2018-05-29T05:21:58.670Z,94.60
2018-05-29T05:24:02.920Z,94.60
2018-05-29T05:26:06.519Z,94.60
2018-05-29T05:28:10.729Z,94.70
2018-05-29T05:30:14.180Z,94.60
2018-05-29T05:32:17.557Z,94.80
2018-05-29T05:34:21.052Z,94.50
2018-05-29T05:36:28.764Z,94.60
2018-05-29T05:38:34.262Z,94.80
2018-05-29T05:40:37.657Z,95.40
2018-05-29T05:42:44.231Z,96.20
2018-05-29T05:44:47.695Z,94.40
2018-05-29T05:46:51.134Z,94.60
2018-05-29T05:48:54.587Z,93.70
2018-05-29T05:50:58.770Z,93.20
2018-05-29T05:53:02.185Z,93.30
2018-05-29T05:55:05.599Z,93.50
2018-05-29T05:57:09.002Z,93.80
2018-05-29T05:59:12.485Z,93.70
2018-05-29T06:01:15.883Z,93.40
2018-05-29T06:03:21.434Z,93.50
2018-05-29T06:05:24.904Z,93.30
2018-05-29T06:07:28.319Z,93.20
2018-05-29T06:09:31.806Z,92.60
2018-05-29T06:11:35.211Z,92.80
2018-05-29T06:13:39.429Z,92.60
2018-05-29T06:15:42.945Z,92.60
2018-05-29T06:17:46.339Z,93.10
2018-05-29T06:19:50.550Z,92.70
2018-05-29T06:21:54.719Z,91.50
2018-05-29T06:23:58.260Z,91.50
2018-05-29T06:26:01.654Z,91.20
2018-05-29T06:28:05.103Z,91.20
2018-05-29T06:30:08.606Z,91.90
2018-05-29T06:32:12.091Z,91.40
2018-05-29T06:34:15.658Z,91.10
2018-05-29T06:36:19.080Z,91.70
2018-05-29T06:38:22.487Z,91.10
2018-05-29T06:40:25.943Z,90.80
2018-05-29T06:42:30.172Z,90.40
2018-05-29T06:44:33.631Z,90.90
2018-05-29T06:46:37.071Z,89.60
2018-05-29T06:48:40.520Z,89.30
2018-05-29T06:50:43.953Z,88.80
2018-05-29T06:52:47.324Z,89.30
2018-05-29T06:54:50.753Z,88.40
2018-05-29T06:56:58.248Z,89.50
2018-05-29T06:59:01.746Z,89.60
2018-05-29T07:01:05.194Z,90.20
2018-05-29T07:03:08.626Z,89.60
2018-05-29T07:05:12.046Z,90.00
2018-05-29T07:07:15.435Z,91.50
2018-05-29T07:09:29.860Z,89.40
2018-05-29T07:11:33.247Z,90.80
2018-05-29T07:13:38.417Z,87.90
2018-05-29T07:15:41.916Z,88.00
2018-05-29T07:17:46.140Z,88.90
2018-05-29T07:19:53.677Z,89.00
2018-05-29T07:21:57.939Z,85.40
2018-05-29T07:24:01.317Z,85.40
2018-05-29T07:26:04.909Z,84.20
2018-05-29T07:28:08.294Z,84.60
2018-05-29T07:30:11.748Z,86.70
2018-05-29T07:32:15.165Z,87.00
2018-05-29T07:34:19.382Z,86.80
2018-05-29T07:36:23.569Z,88.50
2018-05-29T07:38:26.997Z,88.50
2018-05-29T07:40:30.457Z,87.50
2018-05-29T07:42:33.849Z,88.80
2018-05-29T07:44:38.003Z,88.40
2018-05-29T07:46:42.404Z,88.40
2018-05-29T07:48:45.783Z,89.10
2018-05-29T07:50:49.990Z,88.80
2018-05-29T07:52:54.134Z,90.70
2018-05-29T07:54:57.695Z,90.30
2018-05-29T07:57:01.097Z,88.60
2018-05-29T07:59:04.476Z,88.70
2018-05-29T08:01:07.957Z,86.90
2018-05-29T08:03:12.222Z,86.30
2018-05-29T08:05:15.634Z,86.60
2018-05-29T08:07:19.057Z,88.70
2018-05-29T08:09:22.440Z,88.10
2018-05-29T08:11:25.915Z,90.20
2018-05-29T08:13:29.360Z,88.30
2018-05-29T08:15:32.886Z,90.60
2018-05-29T08:17:37.037Z,89.20
2018-05-29T08:19:40.562Z,89.20
2018-05-29T08:21:44.025Z,90.00
2018-05-29T08:23:48.185Z,87.20
2018-05-29T08:25:51.620Z,87.10
2018-05-29T08:27:55.119Z,84.60
2018-05-29T08:29:58.519Z,86.10
2018-05-29T08:32:02.004Z,87.20
2018-05-29T08:34:05.402Z,85.30
2018-05-29T08:36:08.841Z,85.30
2018-05-29T08:38:12.259Z,86.60
2018-05-29T08:40:15.770Z,85.70
2018-05-29T08:42:19.133Z,86.80
2018-05-29T08:44:22.563Z,86.20
2018-05-29T08:46:26.160Z,87.20
2018-05-29T08:48:29.632Z,87.50
2018-05-29T08:50:33.093Z,85.30
2018-05-29T08:52:37.308Z,86.10
2018-05-29T08:54:40.734Z,86.00
2018-05-29T08:56:44.247Z,84.50
2018-05-29T08:58:47.689Z,85.50
2018-05-29T09:00:51.153Z,85.70
2018-05-29T09:02:54.561Z,85.70
2018-05-29T09:04:58.814Z,81.10
2018-05-29T09:07:02.753Z,81.10
2018-05-29T09:09:06.231Z,81.90
2018-05-29T09:11:09.653Z,80.70
2018-05-29T09:13:13.046Z,83.90
2018-05-29T09:15:17.475Z,82.10
2018-05-29T09:17:20.930Z,84.20
2018-05-29T09:19:25.122Z,83.50
2018-05-29T09:21:31.737Z,83.50
2018-05-29T09:23:35.178Z,84.60
2018-05-29T09:25:38.609Z,85.50
2018-05-29T09:27:42.012Z,86.40
2018-05-29T09:29:46.533Z,86.90
2018-05-29T09:31:49.985Z,87.80
2018-05-29T09:33:54.164Z,87.60
2018-05-29T09:35:57.616Z,87.70
2018-05-29T09:38:01.800Z,88.20
2018-05-29T09:40:06.026Z,87.10
2018-05-29T09:42:10.581Z,87.00
2018-05-29T09:44:14.742Z,90.40
2018-05-29T09:46:18.213Z,90.40
2018-05-29T09:48:21.716Z,89.00
2018-05-29T09:50:25.135Z,87.00
2018-05-29T09:52:28.553Z,88.80
2018-05-29T09:54:31.935Z,87.30
2018-05-29T09:56:35.394Z,88.30
2018-05-29T09:58:38.801Z,88.70
2018-05-29T10:00:42.267Z,85.30
2018-05-29T10:02:45.663Z,86.40
2018-05-29T10:04:49.173Z,86.60
2018-05-29T10:06:52.610Z,86.70
2018-05-29T10:08:55.981Z,86.00
2018-05-29T10:10:59.445Z,87.00
2018-05-29T10:13:05.641Z,89.60
2018-05-29T10:15:09.822Z,88.80
2018-05-29T10:17:14.056Z,89.50
2018-05-29T10:19:19.636Z,89.60
2018-05-29T10:21:23.103Z,89.60
2018-05-29T10:23:27.500Z,88.80
2018-05-29T10:25:30.837Z,87.90
2018-05-29T10:27:34.493Z,88.50
2018-05-29T10:29:37.871Z,87.40
2018-05-29T10:31:42.037Z,87.30
2018-05-29T10:33:45.431Z,87.10
2018-05-29T10:35:48.845Z,88.10
2018-05-29T10:37:52.418Z,86.30
2018-05-29T10:40:04.707Z,87.20
2018-05-29T10:42:09.474Z,87.00
2018-05-29T10:44:12.879Z,86.10
2018-05-29T10:46:16.317Z,85.70
2018-05-29T10:48:19.683Z,85.90
2018-05-29T10:50:23.801Z,85.40
2018-05-29T10:52:27.330Z,85.40
2018-05-29T10:54:31.527Z,86.10
2018-05-29T10:56:34.927Z,86.10
2018-05-29T10:58:39.133Z,83.80
2018-05-29T11:00:42.496Z,83.90
2018-05-29T11:02:45.916Z,85.80
2018-05-29T11:04:50.562Z,85.10
2018-05-29T11:06:54.033Z,83.90
2018-05-29T11:08:57.433Z,84.60
2018-05-29T11:11:00.889Z,84.10
2018-05-29T11:13:09.616Z,82.20
2018-05-29T11:15:13.935Z,81.20
2018-05-29T11:17:18.164Z,81.00
2018-05-29T11:19:21.674Z,80.50
2018-05-29T11:21:25.115Z,83.60
2018-05-29T11:23:28.662Z,82.30
2018-05-29T11:25:32.041Z,82.50
2018-05-29T11:27:35.507Z,79.90
2018-05-29T11:29:38.991Z,77.30
2018-05-29T11:31:42.385Z,76.40
2018-05-29T11:33:45.815Z,78.30
2018-05-29T11:35:49.186Z,79.00
2018-05-29T11:37:52.612Z,77.90
2018-05-29T11:39:55.960Z,78.10
2018-05-29T11:42:00.213Z,78.10
2018-05-29T11:44:03.595Z,77.60
2018-05-29T11:46:06.960Z,77.30
2018-05-29T11:48:12.447Z,77.10
2018-05-29T11:50:16.888Z,77.20
2018-05-29T11:52:20.239Z,77.50
2018-05-29T11:54:23.689Z,76.80
2018-05-29T11:56:27.051Z,78.20
2018-05-29T11:58:33.828Z,76.30
2018-05-29T12:00:38.222Z,77.00
2018-05-29T12:02:41.616Z,79.30
2018-05-29T12:04:45.021Z,79.40
2018-05-29T12:06:48.479Z,76.70
2018-05-29T12:08:52.660Z,77.10
2018-05-29T12:10:56.052Z,77.00
2018-05-29T12:13:00.234Z,76.80
2018-05-29T12:15:04.785Z,77.00
2018-05-29T12:17:08.231Z,75.80
2018-05-29T12:19:17.860Z,74.90
2018-05-29T12:21:23.179Z,73.50
2018-05-29T12:23:26.640Z,75.40
2018-05-29T12:25:30.198Z,73.80
2018-05-29T12:27:33.584Z,78.40
2018-05-29T12:29:37.478Z,76.70
2018-05-29T12:31:41.035Z,76.10
2018-05-29T12:33:44.438Z,77.40
2018-05-29T12:35:47.801Z,76.70
2018-05-29T12:37:51.219Z,79.40
2018-05-29T12:39:54.635Z,77.40
2018-05-29T12:41:58.005Z,79.50
2018-05-29T12:44:01.739Z,77.30
2018-05-29T12:46:05.190Z,74.20
2018-05-29T12:48:08.773Z,77.10
2018-05-29T12:50:12.179Z,76.10
2018-05-29T12:52:16.458Z,77.70
2018-05-29T12:54:20.620Z,75.10
2018-05-29T12:56:23.994Z,75.20
2018-05-29T12:58:27.397Z,72.50
2018-05-29T13:00:30.852Z,74.30
2018-05-29T13:02:34.243Z,77.30
2018-05-29T13:04:37.705Z,71.30
2018-05-29T13:06:41.876Z,72.40
2018-05-29T13:08:50.854Z,72.80
2018-05-29T13:10:55.528Z,73.20
2018-05-29T13:12:59.047Z,69.50
2018-05-29T13:15:02.551Z,71.50
2018-05-29T13:17:05.991Z,70.60
2018-05-29T13:19:09.411Z,73.20
2018-05-29T13:21:12.844Z,71.00
2018-05-29T13:23:27.083Z,71.60
2018-05-29T13:25:30.517Z,73.70
2018-05-29T13:27:34.185Z,72.70
2018-05-29T13:29:39.945Z,72.40
2018-05-29T13:31:45.243Z,72.40
2018-05-29T13:33:48.734Z,74.40
2018-05-29T13:35:52.353Z,71.30
2018-05-29T13:37:55.818Z,72.90
2018-05-29T13:39:59.296Z,76.80
2018-05-29T13:42:02.712Z,75.00
2018-05-29T13:44:06.190Z,74.90
2018-05-29T13:46:09.709Z,73.10
2018-05-29T13:48:13.201Z,73.40
2018-05-29T13:50:16.801Z,74.20
2018-05-29T13:52:20.243Z,73.50
2018-05-29T13:54:24.686Z,73.20
2018-05-29T13:56:28.158Z,73.10
2018-05-29T13:58:31.571Z,71.40
2018-05-29T14:00:35.755Z,74.10
2018-05-29T14:02:39.263Z,74.10
2018-05-29T14:04:42.771Z,76.00
2018-05-29T14:06:46.294Z,76.30
2018-05-29T14:08:49.688Z,76.20
2018-05-29T14:10:53.076Z,76.10
2018-05-29T14:12:56.485Z,78.80
2018-05-29T14:14:59.916Z,79.20
2018-05-29T14:17:03.279Z,78.60
2018-05-29T14:19:06.763Z,76.90
2018-05-29T14:21:10.156Z,77.20
2018-05-29T14:23:14.455Z,75.80
2018-05-29T14:25:17.835Z,75.70
2018-05-29T14:27:21.184Z,73.30
2018-05-29T14:29:24.601Z,74.60
2018-05-29T14:31:28.002Z,74.60
2018-05-29T14:33:31.437Z,74.70
2018-05-29T14:35:34.929Z,75.90
2018-05-29T14:37:38.396Z,77.60
2018-05-29T14:39:41.756Z,75.00
2018-05-29T14:41:45.297Z,75.10
2018-05-29T14:43:48.693Z,75.70
2018-05-29T14:45:52.099Z,73.20
2018-05-29T14:47:55.522Z,73.00
2018-05-29T14:49:59.675Z,69.80
2018-05-29T14:52:03.106Z,69.90
2018-05-29T14:54:06.605Z,69.40
2018-05-29T14:56:10.005Z,68.30
2018-05-29T14:58:13.442Z,69.10
2018-05-29T15:00:16.778Z,71.30
2018-05-29T15:02:20.214Z,71.70
2018-05-29T15:04:23.600Z,68.40
2018-05-29T15:06:27.027Z,69.10
2018-05-29T15:08:30.383Z,66.90
2018-05-29T15:10:33.811Z,66.80
2018-05-29T15:12:37.279Z,66.10
2018-05-29T15:14:41.480Z,68.10
2018-05-29T15:16:44.917Z,68.20
2018-05-29T15:18:48.355Z,70.00
2018-05-29T15:20:51.712Z,72.60
2018-05-29T15:22:55.931Z,69.00
2018-05-29T15:25:00.062Z,69.70
2018-05-29T15:27:03.636Z,69.70
2018-05-29T15:29:07.148Z,70.10
2018-05-29T15:31:10.508Z,69.70
2018-05-29T15:33:13.997Z,71.50
2018-05-29T15:35:17.387Z,72.90
2018-05-29T15:37:21.948Z,70.30
2018-05-29T15:39:25.374Z,69.90
2018-05-29T15:41:28.828Z,71.20
2018-05-29T15:43:32.995Z,69.30
2018-05-29T15:45:36.373Z,69.10
2018-05-29T15:47:39.790Z,69.10
2018-05-29T15:49:43.180Z,68.30
2018-05-29T15:51:46.528Z,68.30
2018-05-29T15:53:49.905Z,68.90
2018-05-29T15:55:53.307Z,68.90
2018-05-29T15:57:56.752Z,76.10
2018-05-29T16:00:00.168Z,68.10
2018-05-29T16:02:03.622Z,67.30
2018-05-29T16:04:07.023Z,66.20
2018-05-29T16:06:10.441Z,65.60
2018-05-29T16:08:14.249Z,68.00
2018-05-29T16:10:18.724Z,67.50
2018-05-29T16:12:23.690Z,67.70
2018-05-29T16:14:27.335Z,67.40
2018-05-29T16:16:31.933Z,67.20
2018-05-29T16:18:35.384Z,65.10
2018-05-29T16:20:38.770Z,67.10
2018-05-29T16:22:42.331Z,67.30
2018-05-29T16:24:47.742Z,67.90
2018-05-29T16:26:51.256Z,67.80
2018-05-29T16:28:54.736Z,61.10
2018-05-29T16:30:58.857Z,61.90
2018-05-29T16:33:04.209Z,61.30
2018-05-29T16:35:07.704Z,62.90
2018-05-29T16:37:11.214Z,60.50
2018-05-29T16:39:15.429Z,62.70
2018-05-29T16:41:18.813Z,62.70
2018-05-29T16:43:22.274Z,62.60
2018-05-29T16:45:25.725Z,61.70
2018-05-29T16:47:29.215Z,62.50
2018-05-29T16:49:32.678Z,63.00
2018-05-29T16:51:36.145Z,61.90
2018-05-29T16:53:39.500Z,63.10
2018-05-29T16:55:42.997Z,62.70
2018-05-29T16:57:46.513Z,63.60
2018-05-29T16:59:49.960Z,62.00
2018-05-29T17:01:53.555Z,61.70
2018-05-29T17:03:57.923Z,62.60
2018-05-29T17:06:01.376Z,62.40
2018-05-29T17:08:04.820Z,60.40
2018-05-29T17:10:08.337Z,60.60
2018-05-29T17:12:11.704Z,60.10
2018-05-29T17:14:15.145Z,59.70
2018-05-29T17:16:18.567Z,60.00
2018-05-29T17:18:22.054Z,59.40
2018-05-29T17:20:25.542Z,59.20
2018-05-29T17:22:29.026Z,57.50
2018-05-29T17:24:33.227Z,59.40
2018-05-29T17:26:36.695Z,59.30
2018-05-29T17:28:40.560Z,58.50
2018-05-29T17:30:47.859Z,58.70
2018-05-29T17:32:51.377Z,58.60
2018-05-29T17:34:54.894Z,58.70
2018-05-29T17:36:58.335Z,58.00
2018-05-29T17:39:01.737Z,58.40
2018-05-29T17:41:05.167Z,58.90
2018-05-29T17:43:09.358Z,57.30
2018-05-29T17:45:12.724Z,57.40
2018-05-29T17:47:16.164Z,57.70
2018-05-29T17:49:19.636Z,57.20
2018-05-29T17:51:23.081Z,56.80
2018-05-29T17:53:26.474Z,56.10
2018-05-29T17:55:29.927Z,56.90
2018-05-29T17:57:33.846Z,57.00
2018-05-29T17:59:37.996Z,58.00
2018-05-29T18:01:43.652Z,58.00
2018-05-29T18:03:52.516Z,58.20
2018-05-29T18:05:56.185Z,57.20
2018-05-29T18:07:59.672Z,57.10
2018-05-29T18:10:03.199Z,58.00
2018-05-29T18:12:06.652Z,58.20
2018-05-29T18:14:10.244Z,58.60
2018-05-29T18:16:13.640Z,59.00
2018-05-29T18:18:18.719Z,59.70
2018-05-29T18:20:23.559Z,60.30
2018-05-29T18:22:32.812Z,60.40
2018-05-29T18:24:36.312Z,60.80
2018-05-29T18:26:39.711Z,61.70
2018-05-29T18:28:43.207Z,62.40
2018-05-29T18:30:47.591Z,62.80
2018-05-29T18:32:50.991Z,63.10
2018-05-29T18:34:54.357Z,62.90
2018-05-29T18:36:57.746Z,63.30
2018-05-29T18:39:01.100Z,63.30
2018-05-29T18:41:05.985Z,62.80
2018-05-29T18:43:09.377Z,63.40
2018-05-29T18:45:13.230Z,63.60
2018-05-29T18:47:16.812Z,63.50
2018-05-29T18:49:21.044Z,64.40
2018-05-29T18:51:24.393Z,64.40
2018-05-29T18:53:27.805Z,65.90
2018-05-29T18:55:31.212Z,65.60
2018-05-29T18:57:34.660Z,65.50
2018-05-29T18:59:38.027Z,65.00
2018-05-29T19:01:41.419Z,65.10
2018-05-29T19:03:44.780Z,65.00
2018-05-29T19:05:48.143Z,65.70
2018-05-29T19:07:52.167Z,67.30
2018-05-29T19:09:55.785Z,67.20
2018-05-29T19:11:59.359Z,67.00
2018-05-29T19:14:03.007Z,67.40
2018-05-29T19:16:17.404Z,68.20
2018-05-29T19:18:21.706Z,69.60
2018-05-29T19:20:25.121Z,69.50
2018-05-29T19:22:29.255Z,69.70
2018-05-29T19:24:33.401Z,78.20
2018-05-29T19:26:36.807Z,78.30
2018-05-29T19:28:40.571Z,78.50
2018-05-29T19:30:44.180Z,78.80
2018-05-29T19:32:47.585Z,80.40
2018-05-29T19:34:51.200Z,74.50
2018-05-29T19:36:54.614Z,76.50
2018-05-29T19:38:58.818Z,78.20
2018-05-29T19:41:05.024Z,80.30
2018-05-29T19:43:08.801Z,80.40
2018-05-29T19:45:12.938Z,83.50
2018-05-29T19:47:17.094Z,86.20
2018-05-29T19:49:20.461Z,86.10
2018-05-29T19:51:24.586Z,90.00
2018-05-29T19:53:28.759Z,90.30
2018-05-29T19:55:32.322Z,90.30
2018-05-29T19:57:35.711Z,90.60
2018-05-29T19:59:39.855Z,91.40
2018-05-29T20:01:43.212Z,91.30
2018-05-29T20:03:46.596Z,91.70
2018-05-29T20:05:49.958Z,91.90
2018-05-29T20:07:53.359Z,91.70
2018-05-29T20:09:57.523Z,91.60
2018-05-29T20:12:00.895Z,91.60
2018-05-29T20:14:04.357Z,91.40
2018-05-29T20:16:07.721Z,91.40
2018-05-29T20:18:11.119Z,91.40
2018-05-29T20:20:14.495Z,91.40
2018-05-29T20:22:17.863Z,91.40
2018-05-29T20:24:21.296Z,91.30
2018-05-29T20:26:24.655Z,91.20
2018-05-29T20:28:28.127Z,91.40
2018-05-29T20:30:31.499Z,91.40
2018-05-29T20:32:35.656Z,91.20
2018-05-29T20:34:39.053Z,91.20
2018-05-29T20:36:42.471Z,91.60
2018-05-29T20:38:45.854Z,91.60
2018-05-29T20:40:49.224Z,92.00
2018-05-29T20:42:53.400Z,92.30
2018-05-29T20:44:56.938Z,92.40
2018-05-29T20:47:02.219Z,93.40
2018-05-29T20:49:05.619Z,93.40
2018-05-29T20:51:09.737Z,93.60
2018-05-29T20:53:13.929Z,93.30
2018-05-29T20:55:17.321Z,93.30
2018-05-29T20:57:20.833Z,93.70
2018-05-29T20:59:24.294Z,93.70
2018-05-29T21:01:27.680Z,93.20
2018-05-29T21:03:31.070Z,93.00
2018-05-29T21:05:35.211Z,92.80
2018-05-29T21:07:38.597Z,92.70
2018-05-29T21:09:42.743Z,92.90
2018-05-29T21:11:46.101Z,92.90
2018-05-29T21:13:49.551Z,92.70
2018-05-29T21:15:52.945Z,92.80
2018-05-29T21:17:56.336Z,92.70
2018-05-29T21:20:00.493Z,92.40
2018-05-29T21:22:03.837Z,92.50
2018-05-29T21:24:07.228Z,92.80
2018-05-29T21:26:10.640Z,93.20
2018-05-29T21:28:14.051Z,93.50
2018-05-29T21:30:18.181Z,94.00
2018-05-29T21:32:22.300Z,94.10
2018-05-29T21:34:26.549Z,94.00
2018-05-29T21:36:29.908Z,94.00
2018-05-29T21:38:33.349Z,94.30
2018-05-29T21:40:36.704Z,94.30
2018-05-29T21:42:40.077Z,94.20
2018-05-29T21:44:43.477Z,94.00
2018-05-29T21:46:46.829Z,93.80
2018-05-29T21:48:50.216Z,94.20
2018-05-29T21:50:53.580Z,94.30
2018-05-29T21:52:56.950Z,94.60
2018-05-29T21:55:01.205Z,95.10
2018-05-29T21:57:04.570Z,95.20
2018-05-29T21:59:08.741Z,95.00
2018-05-29T22:01:12.102Z,95.10
2018-05-29T22:03:16.252Z,95.10
2018-05-29T22:05:19.688Z,95.20
2018-05-29T22:07:23.073Z,95.20
2018-05-29T22:09:26.456Z,95.20
2018-05-29T22:11:31.032Z,95.30
2018-05-29T22:13:34.496Z,95.10
2018-05-29T22:15:37.880Z,94.80
2018-05-29T22:17:42.091Z,94.80
2018-05-29T22:19:46.269Z,94.80
2018-05-29T22:21:49.643Z,94.70
2018-05-29T22:23:53.052Z,94.80
2018-05-29T22:25:57.643Z,94.90
2018-05-29T22:28:01.041Z,94.70
2018-05-29T22:30:05.219Z,95.10
2018-05-29T22:32:08.584Z,95.10
2018-05-29T22:34:12.866Z,94.80
2018-05-29T22:36:16.317Z,94.70
2018-05-29T22:38:19.687Z,94.80
2018-05-29T22:40:23.084Z,94.60
2018-05-29T22:42:26.447Z,94.90
2018-05-29T22:44:29.872Z,95.10
2018-05-29T22:46:33.233Z,95.30
2018-05-29T22:48:37.447Z,95.20
2018-05-29T22:50:41.612Z,95.60
2018-05-29T22:52:44.973Z,95.50
2018-05-29T22:54:49.211Z,95.40
2018-05-29T22:56:52.590Z,95.50
2018-05-29T22:58:56.737Z,95.60
2018-05-29T23:01:00.089Z,95.60
2018-05-29T23:03:03.513Z,95.60
2018-05-29T23:05:06.941Z,95.70
2018-05-29T23:07:10.322Z,95.80
2018-05-29T23:09:14.487Z,95.60
2018-05-29T23:11:17.950Z,95.60
2018-05-29T23:13:22.083Z,95.50
2018-05-29T23:15:26.328Z,95.40
2018-05-29T23:17:29.711Z,95.50
2018-05-29T23:19:33.239Z,95.60
2018-05-29T23:21:36.613Z,96.00
2018-05-29T23:23:40.743Z,96.40
2018-05-29T23:25:44.138Z,96.30
2018-05-29T23:27:47.587Z,96.20
2018-05-29T23:29:50.976Z,96.20
2018-05-29T23:31:55.359Z,96.10
2018-05-29T23:33:59.480Z,96.00
2018-05-29T23:36:03.741Z,95.70
2018-05-29T23:38:07.125Z,95.80
2018-05-29T23:40:10.547Z,95.40
2018-05-29T23:42:13.916Z,95.50
2018-05-29T23:44:17.318Z,95.30
2018-05-29T23:46:21.485Z,95.50
2018-05-29T23:48:25.650Z,95.40
2018-05-29T23:50:29.072Z,95.60
2018-05-29T23:52:33.292Z,95.70
2018-05-29T23:54:37.474Z,95.60
2018-05-29T23:56:40.848Z,95.60
2018-05-29T23:58:44.216Z,95.60
